createdAt,value
2023-12-09T00:02:11.974Z,3.30
2023-12-09T00:04:55.536Z,3.20
2023-12-09T00:07:31.875Z,3.00
2023-12-09T00:10:15.398Z,3.22
2023-12-09T00:12:57.184Z,3.38
2023-12-09T00:15:32.533Z,3.49
2023-12-09T00:18:10.073Z,3.34
2023-12-09T00:20:48.532Z,3.08
2023-12-09T00:23:24.451Z,3.20
2023-12-09T00:25:59.746Z,3.40
2023-12-09T00:28:34.625Z,3.79
2023-12-09T00:31:10.005Z,3.52
2023-12-09T00:33:44.254Z,3.48
2023-12-09T00:36:25.256Z,3.68
2023-12-09T00:39:00.288Z,3.16
2023-12-09T00:41:33.023Z,3.17
2023-12-09T00:44:08.001Z,3.33
2023-12-09T00:46:52.061Z,3.70
2023-12-09T00:49:24.497Z,3.43
2023-12-09T00:52:02.199Z,3.54
2023-12-09T00:54:37.930Z,3.62
2023-12-09T00:57:12.690Z,3.62
2023-12-09T00:59:54.982Z,3.42
2023-12-09T01:02:32.869Z,3.56
2023-12-09T01:05:05.531Z,3.35
2023-12-09T01:07:38.711Z,3.33
2023-12-09T01:10:09.196Z,3.34
2023-12-09T01:12:38.972Z,3.56
2023-12-09T01:15:16.734Z,3.70
2023-12-09T01:17:52.851Z,3.73
2023-12-09T01:20:28.326Z,3.73
2023-12-09T01:23:00.517Z,3.50
2023-12-09T01:25:40.552Z,3.33
2023-12-09T01:28:18.502Z,3.63
2023-12-09T01:31:13.024Z,3.46
2023-12-09T01:34:10.462Z,3.41
2023-12-09T01:36:49.414Z,3.31
2023-12-09T01:39:19.078Z,3.39
2023-12-09T01:41:55.248Z,3.32
2023-12-09T01:44:33.458Z,3.26
2023-12-09T01:47:09.078Z,3.19
2023-12-09T01:49:45.853Z,3.24
2023-12-09T01:52:18.995Z,3.26
2023-12-09T01:54:52.485Z,3.16
2023-12-09T01:57:26.170Z,3.28
2023-12-09T02:00:07.791Z,3.23
2023-12-09T02:02:38.257Z,3.29
2023-12-09T02:05:12.018Z,3.29
2023-12-09T02:07:46.732Z,3.30
2023-12-09T02:10:22.590Z,3.26
2023-12-09T02:13:14.066Z,3.47
2023-12-09T02:15:45.659Z,3.59
2023-12-09T02:18:23.644Z,3.58
2023-12-09T02:21:01.177Z,3.38
2023-12-09T02:23:35.725Z,3.35
2023-12-09T02:26:20.690Z,3.32
2023-12-09T02:29:11.331Z,3.46
2023-12-09T02:31:47.838Z,3.56
2023-12-09T02:34:24.698Z,3.43
2023-12-09T02:36:58.584Z,3.38
2023-12-09T02:39:37.732Z,3.43
2023-12-09T02:42:16.852Z,3.34
2023-12-09T02:44:53.623Z,3.50
2023-12-09T02:47:26.641Z,3.33
2023-12-09T02:50:01.645Z,3.44
2023-12-09T02:52:42.769Z,3.47
2023-12-09T02:55:27.896Z,3.43
2023-12-09T02:58:04.873Z,3.45
2023-12-09T03:00:39.463Z,3.24
2023-12-09T03:03:21.045Z,3.38
2023-12-09T03:05:54.033Z,3.34
2023-12-09T03:08:29.226Z,3.56
2023-12-09T03:11:02.259Z,3.52
2023-12-09T03:13:39.944Z,3.38
2023-12-09T03:16:15.425Z,3.34
2023-12-09T03:18:48.167Z,3.23
2023-12-09T03:21:28.676Z,3.35
2023-12-09T03:24:04.152Z,3.44
2023-12-09T03:26:38.659Z,3.47
2023-12-09T03:29:16.776Z,3.47
2023-12-09T03:31:52.734Z,3.47
2023-12-09T03:34:32.060Z,3.38
2023-12-09T03:37:12.677Z,3.55
2023-12-09T03:39:54.068Z,3.51
2023-12-09T03:42:32.548Z,3.14
2023-12-09T03:45:07.687Z,3.27
2023-12-09T03:47:40.079Z,3.27
2023-12-09T03:50:13.664Z,3.10
2023-12-09T03:52:48.425Z,2.87
2023-12-09T03:55:21.572Z,3.07
2023-12-09T03:58:00.282Z,3.12
2023-12-09T04:00:40.578Z,2.83
2023-12-09T04:03:16.380Z,2.86
2023-12-09T04:05:48.849Z,3.17
2023-12-09T04:08:28.918Z,3.33
2023-12-09T04:11:01.318Z,2.93
2023-12-09T04:13:34.290Z,3.22
2023-12-09T04:16:08.229Z,2.95
2023-12-09T04:18:48.629Z,3.14
2023-12-09T04:21:23.543Z,3.26
2023-12-09T04:24:01.040Z,3.55
2023-12-09T04:26:41.647Z,3.56
2023-12-09T04:29:14.931Z,3.38
2023-12-09T04:31:47.091Z,3.28
2023-12-09T04:34:25.184Z,3.11
2023-12-09T04:36:57.792Z,3.06
2023-12-09T04:39:32.580Z,3.12
2023-12-09T04:42:06.238Z,3.25
2023-12-09T04:44:44.589Z,3.42
2023-12-09T04:47:18.905Z,3.31
2023-12-09T04:49:51.977Z,3.28
2023-12-09T04:52:32.623Z,3.11
2023-12-09T04:55:16.161Z,3.14
2023-12-09T04:57:59.599Z,2.98
2023-12-09T05:00:33.442Z,3.15
2023-12-09T05:03:06.421Z,3.36
2023-12-09T05:05:39.797Z,3.19
2023-12-09T05:08:10.075Z,3.26
2023-12-09T05:10:45.085Z,3.17
2023-12-09T05:13:15.784Z,3.01
2023-12-09T05:15:53.417Z,3.22
2023-12-09T05:18:28.258Z,3.18
2023-12-09T05:21:00.956Z,3.11
2023-12-09T05:23:35.763Z,3.12
2023-12-09T05:26:08.703Z,3.02
2023-12-09T05:28:41.825Z,3.09
2023-12-09T05:31:14.014Z,3.12
2023-12-09T05:33:49.608Z,3.31
2023-12-09T05:36:28.244Z,3.01
2023-12-09T05:39:03.975Z,3.22
2023-12-09T05:41:44.148Z,3.28
2023-12-09T05:44:17.045Z,3.36
2023-12-09T05:46:54.831Z,3.28
2023-12-09T05:49:33.684Z,3.32
2023-12-09T05:52:12.412Z,3.30
2023-12-09T05:54:56.321Z,2.86
2023-12-09T05:57:26.170Z,3.09
2023-12-09T06:00:01.181Z,3.21
2023-12-09T06:02:35.849Z,3.28
2023-12-09T06:05:14.857Z,3.33
2023-12-09T06:07:45.170Z,3.00
2023-12-09T06:10:21.167Z,3.02
2023-12-09T06:13:12.823Z,2.89
2023-12-09T06:15:57.184Z,2.93
2023-12-09T06:18:33.686Z,2.98
2023-12-09T06:21:11.318Z,2.77
2023-12-09T06:23:46.550Z,2.87
2023-12-09T06:26:24.116Z,2.66
2023-12-09T06:28:56.276Z,2.82
2023-12-09T06:31:37.528Z,2.77
2023-12-09T06:34:12.984Z,3.10
2023-12-09T06:36:53.360Z,3.03
2023-12-09T06:39:28.962Z,3.12
2023-12-09T06:42:07.211Z,2.86
2023-12-09T06:44:44.821Z,2.59
2023-12-09T06:47:25.288Z,2.76
2023-12-09T06:50:07.662Z,2.78
2023-12-09T06:52:39.830Z,3.04
2023-12-09T06:55:13.072Z,3.46
2023-12-09T06:57:50.668Z,3.27
2023-12-09T07:00:26.777Z,3.20
2023-12-09T07:03:02.856Z,3.04
2023-12-09T07:05:43.993Z,3.13
2023-12-09T07:08:17.162Z,3.20
2023-12-09T07:10:57.721Z,3.13
2023-12-09T07:13:30.007Z,3.19
2023-12-09T07:16:04.604Z,3.28
2023-12-09T07:18:45.338Z,3.03
2023-12-09T07:21:30.007Z,3.31
2023-12-09T07:24:14.274Z,3.28
2023-12-09T07:26:52.477Z,3.01
2023-12-09T07:29:32.286Z,2.89
2023-12-09T07:32:07.865Z,3.22
2023-12-09T07:34:37.864Z,3.25
2023-12-09T07:37:11.129Z,3.21
2023-12-09T07:39:54.332Z,3.18
2023-12-09T07:42:30.075Z,3.26
2023-12-09T07:45:09.720Z,3.39
2023-12-09T07:47:43.002Z,3.42
2023-12-09T07:50:18.570Z,3.68
2023-12-09T07:52:57.144Z,3.95
2023-12-09T07:55:35.178Z,3.77
2023-12-09T07:58:14.190Z,3.45
2023-12-09T08:00:52.216Z,3.63
2023-12-09T08:03:30.561Z,3.49
2023-12-09T08:06:04.444Z,3.51
2023-12-09T08:08:52.636Z,3.50
2023-12-09T08:11:31.764Z,3.90
2023-12-09T08:14:05.410Z,3.83
2023-12-09T08:16:41.820Z,3.76
2023-12-09T08:19:12.758Z,3.97
2023-12-09T08:21:46.226Z,4.00
2023-12-09T08:24:27.747Z,3.97
2023-12-09T08:27:08.083Z,4.17
2023-12-09T08:29:54.609Z,3.97
2023-12-09T08:32:27.126Z,3.76
2023-12-09T08:35:09.722Z,3.68
2023-12-09T08:37:44.140Z,3.80
2023-12-09T08:40:23.365Z,3.82
2023-12-09T08:42:59.599Z,4.06
2023-12-09T08:45:54.164Z,4.68
2023-12-09T08:48:29.223Z,4.62
2023-12-09T08:51:02.320Z,4.21
2023-12-09T08:53:41.877Z,4.46
2023-12-09T08:56:24.992Z,4.59
2023-12-09T08:59:13.080Z,4.59
2023-12-09T09:01:52.380Z,4.37
2023-12-09T09:04:34.847Z,4.13
2023-12-09T09:07:18.918Z,4.49
2023-12-09T09:10:03.881Z,4.48
2023-12-09T09:12:52.563Z,4.39
2023-12-09T09:15:31.880Z,4.54
2023-12-09T09:18:15.705Z,4.57
2023-12-09T09:20:57.080Z,4.63
2023-12-09T09:23:39.085Z,4.69
2023-12-09T09:26:23.923Z,4.59
2023-12-09T09:29:03.984Z,4.68
2023-12-09T09:31:38.610Z,4.78
2023-12-09T09:34:23.658Z,4.82
2023-12-09T09:37:15.433Z,4.99
2023-12-09T09:40:01.765Z,5.12
2023-12-09T09:42:45.251Z,5.00
2023-12-09T09:45:32.529Z,4.88
2023-12-09T09:48:20.632Z,4.82
2023-12-09T09:51:05.660Z,4.92
2023-12-09T09:54:03.881Z,5.05
2023-12-09T09:57:05.692Z,4.81
2023-12-09T09:59:46.373Z,5.10
2023-12-09T10:02:29.813Z,5.03
2023-12-09T10:05:07.846Z,5.00
2023-12-09T10:07:47.047Z,4.57
2023-12-09T10:10:28.643Z,4.89
2023-12-09T10:13:10.115Z,5.03
2023-12-09T10:15:48.380Z,5.11
2023-12-09T10:18:41.481Z,5.20
2023-12-09T10:21:19.795Z,5.42
2023-12-09T10:24:04.067Z,5.15
2023-12-09T10:26:39.792Z,5.31
2023-12-09T10:29:32.984Z,5.53
2023-12-09T10:32:21.778Z,5.52
2023-12-09T10:35:19.797Z,5.63
2023-12-09T10:38:07.389Z,5.61
2023-12-09T10:40:42.835Z,5.29
2023-12-09T10:43:29.122Z,5.16
2023-12-09T10:46:14.857Z,5.36
2023-12-09T10:48:52.390Z,5.47
2023-12-09T10:51:33.768Z,5.31
2023-12-09T10:54:28.582Z,5.39
2023-12-09T10:57:16.362Z,5.15
2023-12-09T10:59:51.323Z,5.03
2023-12-09T11:02:49.963Z,5.21
2023-12-09T11:05:32.898Z,5.04
2023-12-09T11:08:13.296Z,4.87
2023-12-09T11:10:49.637Z,4.98
2023-12-09T11:13:20.547Z,5.12
2023-12-09T11:16:20.412Z,5.24
2023-12-09T11:19:00.358Z,5.30
2023-12-09T11:21:36.131Z,5.44
2023-12-09T11:24:26.004Z,5.56
2023-12-09T11:27:03.409Z,5.67
2023-12-09T11:29:40.165Z,5.37
2023-12-09T11:32:25.721Z,5.30
2023-12-09T11:35:08.919Z,5.43
2023-12-09T11:37:50.057Z,5.43
2023-12-09T11:40:28.547Z,5.63
2023-12-09T11:43:07.920Z,5.57
2023-12-09T11:45:52.305Z,5.57
2023-12-09T11:48:37.321Z,5.44
2023-12-09T11:51:22.659Z,5.64
2023-12-09T11:54:02.837Z,5.80
2023-12-09T11:56:39.375Z,5.40
2023-12-09T11:59:19.919Z,5.73
2023-12-09T12:02:00.231Z,5.39
2023-12-09T12:04:38.912Z,5.42
2023-12-09T12:07:20.125Z,5.36
2023-12-09T12:09:52.543Z,5.43
2023-12-09T12:12:33.723Z,5.32
2023-12-09T12:15:11.155Z,5.46
2023-12-09T12:17:52.311Z,5.58
2023-12-09T12:20:32.895Z,5.32
2023-12-09T12:23:26.361Z,5.35
2023-12-09T12:26:17.157Z,5.55
2023-12-09T12:28:59.169Z,5.79
2023-12-09T12:31:37.516Z,5.53
2023-12-09T12:34:50.086Z,5.32
2023-12-09T12:37:38.318Z,5.26
2023-12-09T12:40:15.541Z,5.34
2023-12-09T12:43:02.717Z,5.56
2023-12-09T12:45:49.083Z,5.81
2023-12-09T12:48:35.957Z,5.89
2023-12-09T12:51:35.262Z,5.44
2023-12-09T12:54:13.525Z,5.25
2023-12-09T12:56:57.216Z,5.41
2023-12-09T12:59:42.613Z,5.33
2023-12-09T13:02:20.577Z,5.43
2023-12-09T13:05:01.535Z,5.20
2023-12-09T13:07:44.880Z,5.32
2023-12-09T13:10:25.315Z,5.59
2023-12-09T13:13:02.653Z,5.13
2023-12-09T13:15:45.966Z,5.23
2023-12-09T13:18:23.036Z,5.36
2023-12-09T13:21:09.651Z,5.08
2023-12-09T13:23:51.157Z,5.06
2023-12-09T13:26:29.734Z,5.02
2023-12-09T13:29:17.765Z,5.08
2023-12-09T13:31:55.772Z,4.95
2023-12-09T13:34:36.598Z,4.87
2023-12-09T13:37:09.725Z,4.78
2023-12-09T13:40:00.948Z,4.90
2023-12-09T13:42:31.347Z,4.79
2023-12-09T13:45:14.796Z,4.85
2023-12-09T13:47:55.631Z,4.91
2023-12-09T13:50:30.599Z,4.61
2023-12-09T13:53:08.491Z,4.30
2023-12-09T13:55:54.273Z,4.24
2023-12-09T13:58:41.834Z,4.17
2023-12-09T14:01:25.505Z,4.41
2023-12-09T14:04:06.759Z,4.53
2023-12-09T14:06:53.047Z,4.41
2023-12-09T14:09:31.653Z,4.46
2023-12-09T14:12:16.785Z,4.60
2023-12-09T14:14:53.291Z,4.54
2023-12-09T14:17:35.166Z,4.55
2023-12-09T14:20:15.807Z,4.85
2023-12-09T14:23:20.809Z,4.88
2023-12-09T14:26:04.639Z,4.81
2023-12-09T14:28:40.892Z,4.48
2023-12-09T14:31:16.262Z,4.56
2023-12-09T14:33:57.014Z,4.67
2023-12-09T14:36:35.776Z,4.69
2023-12-09T14:39:16.029Z,4.52
2023-12-09T14:42:12.455Z,4.44
2023-12-09T14:44:58.130Z,4.20
2023-12-09T14:47:58.179Z,4.17
2023-12-09T14:50:42.814Z,4.19
2023-12-09T14:53:35.644Z,4.01
2023-12-09T14:56:16.234Z,4.24
2023-12-09T14:59:21.837Z,4.48
2023-12-09T15:02:10.499Z,4.40
2023-12-09T15:04:51.237Z,3.80
2023-12-09T15:07:41.247Z,4.07
2023-12-09T15:10:30.131Z,4.10
2023-12-09T15:13:09.701Z,4.27
2023-12-09T15:15:46.833Z,4.21
2023-12-09T15:18:33.023Z,4.29
2023-12-09T15:21:24.094Z,4.10
2023-12-09T15:24:15.792Z,3.91
2023-12-09T15:26:57.658Z,3.82
2023-12-09T15:29:37.841Z,4.02
2023-12-09T15:32:18.233Z,3.87
2023-12-09T15:35:02.541Z,4.37
2023-12-09T15:37:42.861Z,4.27
2023-12-09T15:40:15.823Z,4.10
2023-12-09T15:42:59.662Z,4.01
2023-12-09T15:45:31.969Z,4.08
2023-12-09T15:48:09.803Z,4.09
2023-12-09T15:50:43.227Z,4.02
2023-12-09T15:53:26.892Z,3.77
2023-12-09T15:56:05.358Z,3.77
2023-12-09T15:58:41.541Z,3.78
2023-12-09T16:01:14.512Z,3.70
2023-12-09T16:03:50.582Z,3.78
2023-12-09T16:06:29.924Z,3.53
2023-12-09T16:09:04.807Z,3.66
2023-12-09T16:11:42.980Z,3.61
2023-12-09T16:14:29.560Z,3.70
2023-12-09T16:17:03.143Z,3.86
2023-12-09T16:19:38.189Z,3.87
2023-12-09T16:22:17.370Z,3.96
2023-12-09T16:24:54.807Z,3.89
2023-12-09T16:27:42.336Z,3.80
2023-12-09T16:30:14.603Z,3.98
2023-12-09T16:32:51.192Z,4.06
2023-12-09T16:35:27.169Z,4.05
2023-12-09T16:38:02.582Z,4.08
2023-12-09T16:40:37.684Z,4.19
2023-12-09T16:43:13.497Z,4.12
2023-12-09T16:45:51.331Z,4.07
2023-12-09T16:48:23.611Z,3.97
2023-12-09T16:50:54.203Z,3.71
2023-12-09T16:53:29.212Z,3.29
2023-12-09T16:56:02.072Z,3.39
2023-12-09T16:58:37.172Z,3.43
2023-12-09T17:01:11.116Z,3.43
2023-12-09T17:03:43.322Z,3.45
2023-12-09T17:06:20.508Z,3.81
2023-12-09T17:09:01.265Z,3.59
2023-12-09T17:11:36.450Z,3.16
2023-12-09T17:14:10.881Z,3.14
2023-12-09T17:16:44.812Z,3.86
2023-12-09T17:19:14.921Z,3.44
2023-12-09T17:21:53.575Z,3.26
2023-12-09T17:24:30.493Z,3.27
2023-12-09T17:27:00.582Z,3.32
2023-12-09T17:29:35.927Z,3.40
2023-12-09T17:32:13.256Z,3.17
2023-12-09T17:34:45.576Z,3.23
2023-12-09T17:37:18.363Z,3.17
2023-12-09T17:39:53.743Z,3.06
2023-12-09T17:42:31.491Z,2.99
2023-12-09T17:45:02.820Z,3.11
2023-12-09T17:47:35.588Z,2.97
2023-12-09T17:50:11.310Z,2.86
2023-12-09T17:52:45.973Z,2.78
2023-12-09T17:55:20.862Z,2.91
2023-12-09T17:58:09.326Z,2.86
2023-12-09T18:00:44.816Z,2.95
2023-12-09T18:03:17.109Z,2.78
2023-12-09T18:05:54.837Z,2.96
2023-12-09T18:08:27.884Z,3.09
2023-12-09T18:11:13.850Z,3.18
2023-12-09T18:13:47.522Z,2.96
2023-12-09T18:16:23.801Z,3.03
2023-12-09T18:19:01.541Z,2.90
2023-12-09T18:21:39.122Z,3.05
2023-12-09T18:24:20.332Z,3.13
2023-12-09T18:26:53.575Z,3.16
2023-12-09T18:29:28.837Z,3.08
2023-12-09T18:32:05.685Z,3.07
2023-12-09T18:34:38.221Z,2.97
2023-12-09T18:37:19.783Z,3.16
2023-12-09T18:39:52.862Z,3.39
2023-12-09T18:42:28.042Z,3.41
2023-12-09T18:45:09.458Z,3.26
2023-12-09T18:47:47.504Z,3.14
2023-12-09T18:50:19.774Z,3.06
2023-12-09T18:53:14.842Z,3.15
2023-12-09T18:55:53.864Z,3.28
2023-12-09T18:58:34.356Z,3.17
2023-12-09T19:01:11.505Z,3.22
2023-12-09T19:03:44.418Z,3.07
2023-12-09T19:06:23.828Z,3.24
2023-12-09T19:08:57.641Z,3.32
2023-12-09T19:11:35.440Z,3.21
2023-12-09T19:14:19.653Z,3.28
2023-12-09T19:17:12.611Z,2.91
2023-12-09T19:19:45.662Z,2.97
2023-12-09T19:22:20.453Z,3.05
2023-12-09T19:25:05.847Z,3.22
2023-12-09T19:27:50.254Z,2.87
2023-12-09T19:30:30.390Z,2.87
2023-12-09T19:33:00.480Z,2.91
2023-12-09T19:35:33.300Z,2.91
2023-12-09T19:38:10.498Z,2.93
2023-12-09T19:40:52.892Z,2.91
2023-12-09T19:43:27.693Z,3.02
2023-12-09T19:46:05.480Z,2.87
2023-12-09T19:48:36.984Z,3.03
2023-12-09T19:51:09.319Z,2.92
2023-12-09T19:53:41.806Z,2.76
2023-12-09T19:56:17.620Z,2.90
2023-12-09T19:58:46.825Z,2.82
2023-12-09T20:01:22.130Z,2.88
2023-12-09T20:03:49.205Z,2.88
2023-12-09T20:06:22.889Z,2.85
2023-12-09T20:08:58.788Z,2.87
2023-12-09T20:11:38.690Z,2.78
2023-12-09T20:14:13.283Z,2.77
2023-12-09T20:16:46.516Z,2.79
2023-12-09T20:19:18.577Z,2.66
2023-12-09T20:21:52.970Z,3.16
2023-12-09T20:24:25.225Z,3.47
2023-12-09T20:26:55.743Z,2.86
2023-12-09T20:29:29.942Z,3.40
2023-12-09T20:32:02.494Z,2.48
2023-12-09T20:34:32.567Z,2.51
2023-12-09T20:37:03.520Z,2.70
2023-12-09T20:39:45.399Z,2.67
2023-12-09T20:42:14.673Z,2.84
2023-12-09T20:44:47.545Z,2.59
2023-12-09T20:47:19.604Z,2.58
2023-12-09T20:49:51.879Z,2.84
2023-12-09T20:52:21.486Z,2.74
2023-12-09T20:54:57.166Z,2.95
2023-12-09T20:57:34.629Z,2.87
2023-12-09T21:00:04.477Z,2.87
2023-12-09T21:02:36.727Z,2.91
2023-12-09T21:05:09.766Z,3.20
2023-12-09T21:07:46.933Z,3.23
2023-12-09T21:10:19.251Z,3.19
2023-12-09T21:12:51.695Z,3.34
2023-12-09T21:15:21.969Z,3.28
2023-12-09T21:17:57.081Z,3.38
2023-12-09T21:20:28.887Z,3.43
2023-12-09T21:23:00.091Z,3.47
2023-12-09T21:25:35.956Z,3.20
2023-12-09T21:28:11.673Z,3.04
2023-12-09T21:30:46.843Z,2.86
2023-12-09T21:33:21.781Z,3.28
2023-12-09T21:35:54.093Z,3.41
2023-12-09T21:38:32.566Z,3.56
2023-12-09T21:41:04.336Z,3.43
2023-12-09T21:43:37.489Z,3.45
2023-12-09T21:46:15.577Z,3.59
2023-12-09T21:48:48.098Z,3.24
2023-12-09T21:51:22.857Z,3.42
2023-12-09T21:53:56.923Z,3.39
2023-12-09T21:56:29.333Z,3.51
2023-12-09T21:58:59.338Z,3.24
2023-12-09T22:01:36.549Z,3.45
2023-12-09T22:04:11.863Z,3.52
2023-12-09T22:06:47.693Z,3.46
2023-12-09T22:09:21.516Z,3.49
2023-12-09T22:11:59.410Z,3.58
2023-12-09T22:14:32.598Z,3.42
2023-12-09T22:17:03.658Z,3.51
2023-12-09T22:19:36.637Z,3.66
2023-12-09T22:22:08.771Z,3.45
2023-12-09T22:24:43.713Z,3.62
2023-12-09T22:27:19.260Z,3.63
2023-12-09T22:29:51.273Z,3.47
2023-12-09T22:32:28.605Z,3.41
2023-12-09T22:35:00.512Z,3.57
2023-12-09T22:37:32.529Z,3.90
2023-12-09T22:40:02.585Z,4.00
2023-12-09T22:42:34.904Z,3.93
2023-12-09T22:45:05.832Z,4.12
2023-12-09T22:47:36.184Z,3.85
2023-12-09T22:50:11.979Z,3.89
2023-12-09T22:52:49.220Z,3.76
2023-12-09T22:55:23.407Z,3.82
2023-12-09T22:57:52.863Z,3.90
2023-12-09T23:00:34.451Z,4.02
2023-12-09T23:03:06.694Z,3.63
2023-12-09T23:05:42.467Z,3.51
2023-12-09T23:08:18.135Z,3.59
2023-12-09T23:10:53.243Z,3.41
2023-12-09T23:13:26.418Z,3.29
2023-12-09T23:15:59.604Z,3.18
2023-12-09T23:18:39.525Z,3.11
2023-12-09T23:21:15.414Z,3.12
2023-12-09T23:23:50.960Z,3.23
2023-12-09T23:26:24.458Z,3.41
2023-12-09T23:28:59.751Z,3.48
2023-12-09T23:31:39.506Z,3.47
2023-12-09T23:34:16.672Z,3.35
2023-12-09T23:36:49.935Z,3.36
2023-12-09T23:39:19.035Z,3.33
2023-12-09T23:41:52.450Z,3.44
2023-12-09T23:44:24.062Z,3.15
2023-12-09T23:46:55.814Z,3.11
2023-12-09T23:49:27.910Z,2.92
2023-12-09T23:52:00.561Z,2.74
2023-12-09T23:54:35.277Z,2.71
2023-12-09T23:57:08.836Z,2.74
2023-12-09T23:59:39.129Z,2.95
